Time;durP1;ratioP1;P1;durP2;ratioP2;P2;SDS_P1;SDS_P2;PMS_P1;PMS_P2;Temp;Humidity;BMP_temperature;BMP_pressure;BME280_temperature;BME280_humidity;BME280_pressure;Samples;Min_cycle;Max_cycle;Signal;HPM_P1;HPM_P2
2023/06/12 00:00:55;;;;;;;;;;;;;;;30.41;32.38;93905.94;5003280;28;7005;-56
2023/06/12 00:03:26;;;;;;;;;;;;;;;30.38;32.82;93912.63;5026158;28;9057;-56
2023/06/12 00:06:01;;;;;;;;;;;;;;;30.37;32.48;93906.31;5006045;28;7048;-56
2023/06/12 00:08:33;;;;;;;;;;;;;;;30.38;32.37;93912.63;5011853;28;8748;-56
2023/06/12 00:11:09;;;;;;;;;;;;;;;30.39;32.69;93908.53;5011383;28;9484;-56
2023/06/12 00:13:44;;;;;;;;;;;;;;;30.34;33.09;93912.97;5010574;28;7072;-56
2023/06/12 00:16:37;;;;;;;;;;;;;;;30.35;32.93;93916.50;5011225;28;7280;-56
2023/06/12 00:19:15;;;;;;;;;;;;;;;30.34;32.69;93915.03;5027034;28;7214;-56
2023/06/12 00:21:46;;;;;;;;;;;;;;;30.33;33.06;93914.28;5027219;28;9053;-56
2023/06/12 00:24:27;;;;;;;;;;;;;;;30.31;32.70;93918.88;5019890;28;7117;-56
2023/06/12 00:26:57;;;;;;;;;;;;;;;30.33;33.21;93916.31;5013374;28;7276;-56
2023/06/12 00:29:54;;;;;;;;;;;;;;;30.31;32.33;93916.88;5010873;28;9062;-56
2023/06/12 00:32:21;;;;;;;;;;;;;;;30.36;32.56;93921.47;4984601;28;8207;-56
2023/06/12 00:34:47;;;;;;;;;;;;;;;30.33;32.33;93916.31;5002885;28;7121;-56
2023/06/12 00:37:41;;;;;;;;;;;;;;;30.33;33.24;93919.06;4984207;28;7359;-56
2023/06/12 00:40:25;;;;;;;;;;;;;;;30.29;32.35;93919.44;4984581;28;8136;-56
2023/06/12 00:43:13;;;;;;;;;;;;;;;30.28;33.53;93920.72;5001474;28;7283;-56
2023/06/12 00:45:41;;;;;;;;;;;;;;;30.29;33.38;93919.44;4999406;28;9184;-56
2023/06/12 00:48:15;;;;;;;;;;;;;;;30.27;33.17;93919.25;4987605;28;7058;-56
2023/06/12 00:50:47;;;;;;;;;;;;;;;30.27;33.30;93924.03;4969967;28;7043;-56
2023/06/12 00:53:15;;;;;;;;;;;;;;;30.23;32.65;93916.06;4999577;28;7280;-56
2023/06/12 00:55:46;;;;;;;;;;;;;;;30.24;32.77;93922.38;4983338;28;9378;-56
2023/06/12 00:58:13;;;;;;;;;;;;;;;30.24;32.87;93920.34;4969946;28;7112;-56
2023/06/12 01:01:08;;;;;;;;;;;;;;;30.24;32.88;93920.34;4981285;28;7285;-56
2023/06/12 01:03:51;;;;;;;;;;;;;;;30.23;33.49;93916.06;4986949;28;7035;-56
2023/06/12 01:07:20;;;;;;;;;;;;;;;30.21;32.32;93906.84;4985404;28;8347;-56
2023/06/12 01:10:06;;;;;;;;;;;;;;;30.23;32.44;93918.84;5002003;28;8364;-56
2023/06/12 01:13:09;;;;;;;;;;;;;;;30.26;33.18;93911.44;5029090;28;7033;-56
2023/06/12 01:15:36;;;;;;;;;;;;;;;30.20;32.92;93908.13;4989561;28;7037;-56
2023/06/12 01:18:03;;;;;;;;;;;;;;;30.22;33.08;93909.06;4971064;28;7260;-56
2023/06/12 01:20:32;;;;;;;;;;;;;;;30.21;32.39;93910.34;4986707;28;7244;-56
2023/06/12 01:22:58;;;;;;;;;;;;;;;30.19;33.14;93910.16;4986309;28;8348;-56
2023/06/12 01:25:40;;;;;;;;;;;;;;;30.19;32.33;93912.91;4987323;28;7311;-56
2023/06/12 01:28:12;;;;;;;;;;;;;;;30.18;33.05;93908.69;4987122;28;7919;-56
2023/06/12 01:31:06;;;;;;;;;;;;;;;30.16;33.32;93907.75;4988456;28;7263;-56
2023/06/12 01:33:56;;;;;;;;;;;;;;;30.17;33.04;93907.19;4984495;28;9032;-56
2023/06/12 01:36:27;;;;;;;;;;;;;;;30.18;33.14;93913.47;4991887;28;7117;-56
2023/06/12 01:39:18;;;;;;;;;;;;;;;30.17;33.28;93907.19;4991200;28;7250;-56
2023/06/12 01:41:46;;;;;;;;;;;;;;;30.16;32.24;93905.72;4991865;28;7043;-56
2023/06/12 01:44:22;;;;;;;;;;;;;;;30.15;32.50;93907.00;4964738;28;7274;-56
2023/06/12 01:46:48;;;;;;;;;;;;;;;30.16;33.10;93902.94;4972398;28;7292;-56
2023/06/12 01:49:15;;;;;;;;;;;;;;;30.13;32.04;93901.28;4987635;28;9499;-56
2023/06/12 01:51:43;;;;;;;;;;;;;;;30.11;32.41;93906.63;5014752;28;7305;-56
2023/06/12 01:54:12;;;;;;;;;;;;;;;30.12;32.66;93912.94;5024069;28;7358;-56
2023/06/12 01:56:39;;;;;;;;;;;;;;;30.11;32.64;93903.13;5027991;28;9002;-56
2023/06/12 01:59:15;;;;;;;;;;;;;;;30.11;32.86;93906.63;5001380;28;7466;-56
2023/06/12 02:01:57;;;;;;;;;;;;;;;30.12;32.16;93913.69;5027382;28;7199;-56
2023/06/12 02:04:30;;;;;;;;;;;;;;;30.09;32.81;93908.47;5004538;28;7213;-56
2023/06/12 02:07:09;;;;;;;;;;;;;;;30.10;33.33;93915.50;5007986;28;9321;-56
2023/06/12 02:09:37;;;;;;;;;;;;;;;30.08;32.81;93904.94;5000398;28;9777;-56
2023/06/12 02:12:03;;;;;;;;;;;;;;;30.09;32.16;93911.25;5017572;28;8963;-56
2023/06/12 02:14:32;;;;;;;;;;;;;;;30.08;32.59;93901.47;4999301;28;7309;-56
2023/06/12 02:17:02;;;;;;;;;;;;;;;30.09;32.62;93900.91;5008639;28;9014;-56
2023/06/12 02:19:32;;;;;;;;;;;;;;;30.09;33.28;93909.22;5019644;28;7043;-56
2023/06/12 02:22:05;;;;;;;;;;;;;;;30.11;32.38;93920.50;5002095;28;7233;-56
2023/06/12 02:24:46;;;;;;;;;;;;;;;30.13;32.67;93915.13;5003136;28;8952;-56
2023/06/12 02:27:32;;;;;;;;;;;;;;;30.14;32.63;93907.56;5012481;28;9451;-56
2023/06/12 02:30:00;;;;;;;;;;;;;;;30.12;31.99;93913.69;5005815;28;9435;-56
2023/06/12 02:32:33;;;;;;;;;;;;;;;30.13;32.68;93925.50;5002359;28;9158;-56
2023/06/12 02:35:02;;;;;;;;;;;;;;;30.12;33.25;93924.03;5011342;28;7460;-56
2023/06/12 02:37:36;;;;;;;;;;;;;;;30.07;32.52;93920.13;5018914;28;7263;-56
2023/06/12 02:40:16;;;;;;;;;;;;;;;30.06;33.00;93921.41;5010263;28;9347;-56
2023/06/12 02:43:00;;;;;;;;;;;;;;;30.04;32.25;93918.44;5026683;28;7038;-56
2023/06/12 02:45:41;;;;;;;;;;;;;;;30.06;33.30;93909.59;5008663;28;8982;-56
2023/06/12 02:48:24;;;;;;;;;;;;;;;30.04;32.06;93903.84;5004380;28;7981;-56
2023/06/12 02:50:50;;;;;;;;;;;;;;;30.02;32.90;93912.72;5005971;28;7204;-56
2023/06/12 02:53:16;;;;;;;;;;;;;;;30.02;32.26;93912.72;5009033;28;7121;-56
2023/06/12 02:55:51;;;;;;;;;;;;;;;30.03;32.92;93916.22;5016321;28;7037;-56
2023/06/12 02:58:17;;;;;;;;;;;;;;;30.01;32.82;93908.47;5027612;28;9085;-56
2023/06/12 03:00:44;;;;;;;;;;;;;;;30.02;33.37;93911.97;5011711;28;7622;-56
2023/06/12 03:03:20;;;;;;;;;;;;;;;30.03;32.24;93916.97;5009071;28;7378;-56
2023/06/12 03:06:00;;;;;;;;;;;;;;;30.03;32.93;93921.78;5025353;28;9098;-56
2023/06/12 03:08:27;;;;;;;;;;;;;;;30.06;32.34;93920.69;5022876;28;7023;-56
2023/06/12 03:11:03;;;;;;;;;;;;;;;30.01;33.00;93914.03;5014576;28;6917;-56
2023/06/12 03:13:35;;;;;;;;;;;;;;;30.02;32.50;93920.28;5009044;28;9077;-56
2023/06/12 03:16:09;;;;;;;;;;;;;;;29.97;32.23;93918.44;5029601;28;8660;-56
2023/06/12 03:18:57;;;;;;;;;;;;;;;30.00;32.49;93929.16;5015429;28;8712;-56
2023/06/12 03:21:39;;;;;;;;;;;;;;;30.04;32.44;93918.44;5031809;28;7209;-56
2023/06/12 03:24:20;;;;;;;;;;;;;;;30.03;33.07;93924.56;5027728;28;8308;-56
2023/06/12 03:26:48;;;;;;;;;;;;;;;30.03;32.71;93925.31;5015136;28;7516;-56
2023/06/12 03:29:25;;;;;;;;;;;;;;;30.03;32.70;93927.31;5030210;28;7271;-56
2023/06/12 03:32:31;;;;;;;;;;;;;;;30.01;33.21;93936.22;5004711;28;7045;-56
2023/06/12 03:35:11;;;;;;;;;;;;;;;29.99;32.64;93935.28;5029209;28;7714;-56
2023/06/12 03:37:49;;;;;;;;;;;;;;;29.99;32.48;93929.72;5003904;28;7089;-56
2023/06/12 03:40:32;;;;;;;;;;;;;;;30.00;32.74;93942.28;5007666;28;7242;-56
2023/06/12 03:42:58;;;;;;;;;;;;;;;29.98;32.62;93939.31;5016081;28;7306;-56
2023/06/12 03:45:37;;;;;;;;;;;;;;;29.99;31.87;93944.34;5013092;28;7436;-56
2023/06/12 03:48:09;;;;;;;;;;;;;;;29.93;32.40;93938.19;5020990;28;8363;-56
2023/06/12 03:50:38;;;;;;;;;;;;;;;29.96;32.05;93941.91;5014517;28;9412;-56
2023/06/12 03:53:04;;;;;;;;;;;;;;;29.95;32.73;93938.38;5013040;28;7471;-56
2023/06/12 03:55:35;;;;;;;;;;;;;;;29.92;32.73;93945.06;5012083;28;7471;-56
2023/06/12 03:58:02;;;;;;;;;;;;;;;29.93;32.67;93943.75;5013835;28;7342;-56
2023/06/12 04:00:38;;;;;;;;;;;;;;;29.93;32.24;93940.97;5010976;28;9446;-56
2023/06/12 04:03:08;;;;;;;;;;;;;;;29.92;32.55;93944.31;5031327;28;7045;-56
2023/06/12 04:05:45;;;;;;;;;;;;;;;29.95;33.06;93946.00;5019862;28;7021;-56
2023/06/12 04:08:13;;;;;;;;;;;;;;;29.91;33.12;93946.34;5019939;28;7344;-56
2023/06/12 04:10:52;;;;;;;;;;;;;;;29.92;32.83;93947.81;5010625;28;7255;-56
2023/06/12 04:13:54;;;;;;;;;;;;;;;29.94;32.20;93948.00;5004513;28;7113;-56
2023/06/12 04:16:22;;;;;;;;;;;;;;;29.92;32.33;93944.31;5019138;28;7251;-56
2023/06/12 04:18:50;;;;;;;;;;;;;;;29.95;32.59;93957.09;5005649;28;7221;-56
2023/06/12 04:21:23;;;;;;;;;;;;;;;29.93;32.33;93957.63;5011397;28;7110;-56
2023/06/12 04:23:55;;;;;;;;;;;;;;;29.91;32.06;93957.41;5012421;28;7345;-56
2023/06/12 04:26:24;;;;;;;;;;;;;;;29.90;33.04;93969.81;5013279;28;7374;-56
2023/06/12 04:28:51;;;;;;;;;;;;;;;29.87;32.11;93967.38;5003704;28;9036;-55
2023/06/12 04:31:29;;;;;;;;;;;;;;;29.88;32.84;93960.56;5010308;28;9034;-56
2023/06/12 04:34:06;;;;;;;;;;;;;;;29.83;31.90;93959.44;5008969;28;7063;-56
2023/06/12 04:36:37;;;;;;;;;;;;;;;29.87;32.77;93959.81;5025839;28;9025;-56
2023/06/12 04:39:25;;;;;;;;;;;;;;;29.85;32.46;93967.19;5007726;28;7275;-56
2023/06/12 04:42:00;;;;;;;;;;;;;;;29.84;32.66;93960.19;5011395;28;8781;-56
2023/06/12 04:44:31;;;;;;;;;;;;;;;29.85;32.43;93959.63;5010674;28;7152;-56
2023/06/12 04:47:14;;;;;;;;;;;;;;;29.88;33.21;93961.31;5030157;28;7429;-56
2023/06/12 04:49:45;;;;;;;;;;;;;;;29.85;33.22;93956.84;5008020;28;7522;-56
2023/06/12 04:52:12;;;;;;;;;;;;;;;29.90;32.90;93963.53;5028537;28;9065;-56
2023/06/12 04:55:20;;;;;;;;;;;;;;;29.90;32.36;93958.72;5011020;28;7691;-56
2023/06/12 04:57:47;;;;;;;;;;;;;;;29.90;32.78;93957.97;5011525;28;7036;-55
2023/06/12 05:00:15;;;;;;;;;;;;;;;29.91;33.37;93956.66;5008126;28;9011;-56
2023/06/12 05:02:46;;;;;;;;;;;;;;;29.90;33.50;93953.19;5007875;28;8651;-56
2023/06/12 05:05:31;;;;;;;;;;;;;;;29.90;33.10;93953.19;5025020;28;9421;-56
2023/06/12 05:08:13;;;;;;;;;;;;;;;29.87;31.91;93959.81;5010451;28;8688;-56
2023/06/12 05:10:45;;;;;;;;;;;;;;;29.86;32.01;93952.81;5011457;28;7272;-56
2023/06/12 05:13:29;;;;;;;;;;;;;;;29.85;35.16;93959.63;5010561;28;8210;-56
2023/06/12 05:15:59;;;;;;;;;;;;;;;29.87;33.11;93954.28;5007305;28;7238;-56
2023/06/12 05:18:32;;;;;;;;;;;;;;;29.87;32.55;93951.50;5006313;28;7355;-56
2023/06/12 05:21:33;;;;;;;;;;;;;;;29.90;32.88;93950.41;5026142;28;7036;-55
2023/06/12 05:24:10;;;;;;;;;;;;;;;29.86;32.12;93952.81;5021981;28;8094;-56
2023/06/12 05:27:06;;;;;;;;;;;;;;;29.90;32.24;93955.97;5007255;28;7245;-56
2023/06/12 05:29:43;;;;;;;;;;;;;;;29.88;32.78;93955.75;5026121;28;7239;-56
2023/06/12 05:32:13;;;;;;;;;;;;;;;29.89;33.45;93968.31;5028349;28;7490;-56
2023/06/12 05:34:43;;;;;;;;;;;;;;;29.89;32.30;93962.78;5022076;28;7226;-56
2023/06/12 05:37:21;;;;;;;;;;;;;;;29.88;33.09;93961.31;5009813;28;7541;-56
2023/06/12 05:39:58;;;;;;;;;;;;;;;29.88;33.35;93966.84;5009688;28;7351;-56
2023/06/12 05:42:35;;;;;;;;;;;;;;;29.86;33.21;93974.97;5020450;28;7261;-56
2023/06/12 05:45:28;;;;;;;;;;;;;;;29.86;32.65;93969.44;5028322;28;7291;-56
2023/06/12 05:48:04;;;;;;;;;;;;;;;29.83;31.76;93973.31;5005300;28;7069;-56
2023/06/12 05:50:41;;;;;;;;;;;;;;;29.81;30.97;93964.78;5018077;28;9113;-56
2023/06/12 05:53:08;;;;;;;;;;;;;;;29.82;31.56;93969.03;5015021;28;7055;-56
2023/06/12 05:55:40;;;;;;;;;;;;;;;29.81;31.91;93970.34;5018940;28;9093;-56
2023/06/12 05:58:06;;;;;;;;;;;;;;;29.79;30.92;93972.91;5019935;28;7277;-55
2023/06/12 06:00:45;;;;;;;;;;;;;;;29.80;32.06;93964.03;5001941;28;9231;-56
2023/06/12 06:03:12;;;;;;;;;;;;;;;29.78;30.70;93963.09;4985547;28;7016;-56
2023/06/12 06:05:41;;;;;;;;;;;;;;;29.79;31.65;93970.16;5015432;28;7393;-56
2023/06/12 06:08:10;;;;;;;;;;;;;;;29.79;31.87;93975.69;5014916;28;7220;-56
2023/06/12 06:10:36;;;;;;;;;;;;;;;29.80;31.41;93974.38;5013647;28;9124;-56
2023/06/12 06:13:13;;;;;;;;;;;;;;;29.79;31.09;93970.91;4983619;28;7055;-56
2023/06/12 06:15:41;;;;;;;;;;;;;;;29.77;31.17;93978.28;5016531;28;7127;-56
2023/06/12 06:18:53;;;;;;;;;;;;;;;29.78;30.88;93985.28;5001506;28;7632;-56
2023/06/12 06:21:36;;;;;;;;;;;;;;;29.78;32.44;93980.50;5018043;28;9345;-56
2023/06/12 06:24:03;;;;;;;;;;;;;;;29.80;31.50;93985.47;5003598;28;7331;-56
2023/06/12 06:26:44;;;;;;;;;;;;;;;29.78;30.90;93983.25;5008926;28;7292;-57
2023/06/12 06:29:18;;;;;;;;;;;;;;;29.78;33.12;93979.75;5028140;28;8818;-56
2023/06/12 06:31:55;;;;;;;;;;;;;;;29.77;32.42;93979.03;5008665;28;7218;-56
2023/06/12 06:34:49;;;;;;;;;;;;;;;29.80;32.29;93982.69;5007672;28;7217;-56
2023/06/12 06:37:17;;;;;;;;;;;;;;;29.78;32.76;93983.25;5026627;28;7499;-56
2023/06/12 06:39:42;;;;;;;;;;;;;;;29.79;32.94;93986.78;5009821;28;7305;-56
2023/06/12 06:42:08;;;;;;;;;;;;;;;29.78;32.52;93982.50;5024887;28;7237;-56
2023/06/12 06:44:34;;;;;;;;;;;;;;;29.78;31.41;93988.06;5018405;28;9147;-56
2023/06/12 06:47:00;;;;;;;;;;;;;;;29.77;32.24;93979.03;5008406;28;7264;-56
2023/06/12 06:49:30;;;;;;;;;;;;;;;29.78;32.35;93985.28;5015729;28;7232;-56
2023/06/12 06:52:02;;;;;;;;;;;;;;;29.75;32.17;93981.56;5016629;28;7295;-56
2023/06/12 06:54:30;;;;;;;;;;;;;;;29.76;31.81;93988.63;5011810;28;7041;-56
2023/06/12 06:57:00;;;;;;;;;;;;;;;29.77;31.93;93981.78;5006208;28;9129;-56
2023/06/12 06:59:28;;;;;;;;;;;;;;;29.77;32.05;93983.81;5014527;28;7255;-56
2023/06/12 07:01:55;;;;;;;;;;;;;;;29.75;31.48;93980.84;5007957;28;7072;-56
2023/06/12 07:04:26;;;;;;;;;;;;;;;29.77;32.27;93986.59;5009444;28;9041;-56
2023/06/12 07:06:52;;;;;;;;;;;;;;;29.72;32.53;93985.44;5010176;28;7465;-56
2023/06/12 07:09:24;;;;;;;;;;;;;;;29.73;32.85;93980.63;5019313;28;7191;-56
2023/06/12 07:11:53;;;;;;;;;;;;;;;29.73;31.96;93984.13;5028996;28;7000;-56
2023/06/12 07:14:21;;;;;;;;;;;;;;;29.71;32.59;93981.16;5026829;28;8955;-56
2023/06/12 07:17:01;;;;;;;;;;;;;;;29.70;32.38;93979.69;5013563;28;7024;-56
2023/06/12 07:19:35;;;;;;;;;;;;;;;29.72;32.85;93981.91;5014295;28;6992;-56
2023/06/12 07:22:24;;;;;;;;;;;;;;;29.72;32.47;93984.69;5028295;28;7208;-56
2023/06/12 07:25:00;;;;;;;;;;;;;;;29.72;31.86;93981.91;5029726;28;8699;-56
2023/06/12 07:27:26;;;;;;;;;;;;;;;29.75;32.33;93991.94;5013028;28;8751;-56
2023/06/12 07:29:52;;;;;;;;;;;;;;;29.73;32.22;93978.59;5009383;28;7287;-56
2023/06/12 07:32:22;;;;;;;;;;;;;;;29.75;32.23;93980.84;5019262;28;8929;-56
2023/06/12 07:34:54;;;;;;;;;;;;;;;29.74;32.84;93984.91;5009525;28;7076;-56
2023/06/12 07:37:21;;;;;;;;;;;;;;;29.75;31.87;93978.09;5008428;28;8201;-56
2023/06/12 07:39:48;;;;;;;;;;;;;;;29.76;32.53;93988.63;5017154;28;9204;-56
2023/06/12 07:42:19;;;;;;;;;;;;;;;29.78;31.75;93976.97;5010053;28;8741;-56
2023/06/12 07:44:47;;;;;;;;;;;;;;;29.78;32.32;93996.38;5018408;28;7289;-56
2023/06/12 07:47:16;;;;;;;;;;;;;;;29.78;32.15;93979.75;5021513;28;7347;-56
2023/06/12 07:49:43;;;;;;;;;;;;;;;29.76;32.33;93976.78;5008688;28;7071;-56
2023/06/12 07:52:37;;;;;;;;;;;;;;;29.77;31.72;93981.03;5011252;28;7303;-56
2023/06/12 07:55:05;;;;;;;;;;;;;;;29.76;32.14;93976.78;5012099;28;7058;-56
2023/06/12 07:57:32;;;;;;;;;;;;;;;29.77;32.03;93976.25;5011378;28;7105;-56
2023/06/12 08:00:29;;;;;;;;;;;;;;;29.80;31.86;93977.16;5014578;28;9134;-56
2023/06/12 08:03:28;;;;;;;;;;;;;;;29.80;32.61;93977.91;5015435;28;7226;-56
2023/06/12 08:05:56;;;;;;;;;;;;;;;29.81;31.86;93970.34;4961511;28;9152;-56
2023/06/12 08:08:23;;;;;;;;;;;;;;;29.79;32.52;93972.91;4956532;28;8170;-56
2023/06/12 08:11:05;;;;;;;;;;;;;;;29.77;32.77;93975.50;4968187;28;7269;-56
2023/06/12 08:13:32;;;;;;;;;;;;;;;29.77;32.86;93979.03;4972155;28;9356;-56
2023/06/12 08:15:58;;;;;;;;;;;;;;;29.78;32.24;93971.44;4954931;28;9103;-56
2023/06/12 08:18:27;;;;;;;;;;;;;;;29.76;32.76;93971.22;4949196;28;7828;-56
2023/06/12 08:21:05;;;;;;;;;;;;;;;29.76;31.84;93966.44;4967203;28;7045;-56
2023/06/12 08:23:51;;;;;;;;;;;;;;;29.81;31.63;93970.34;4947678;28;7048;-56
2023/06/12 08:26:36;;;;;;;;;;;;;;;29.78;32.99;93963.09;4971726;28;9559;-56
2023/06/12 08:29:41;;;;;;;;;;;;;;;29.80;32.73;93969.59;4963468;28;7124;-56
2023/06/12 08:32:10;;;;;;;;;;;;;;;29.81;32.31;93967.56;4951471;28;8878;-56
2023/06/12 08:34:37;;;;;;;;;;;;;;;29.76;31.78;93960.16;4945084;28;6852;-56
2023/06/12 08:37:04;;;;;;;;;;;;;;;29.76;32.63;93971.22;4949385;28;7217;-56
2023/06/12 08:39:30;;;;;;;;;;;;;;;29.75;32.68;93967.00;4949468;28;7261;-56
2023/06/12 08:42:18;;;;;;;;;;;;;;;29.75;32.54;93972.53;4987142;28;9131;-56
2023/06/12 08:44:45;;;;;;;;;;;;;;;29.76;31.94;93969.22;5007287;28;7057;-56
2023/06/12 08:47:23;;;;;;;;;;;;;;;29.76;32.61;93971.97;5005544;28;7237;-56
2023/06/12 08:49:53;;;;;;;;;;;;;;;29.75;32.16;93969.75;5018422;28;7949;-56
2023/06/12 08:52:46;;;;;;;;;;;;;;;29.78;32.46;93968.66;5019540;28;9259;-56
2023/06/12 08:55:16;;;;;;;;;;;;;;;29.77;31.93;93967.94;5005364;28;7246;-56
2023/06/12 08:57:53;;;;;;;;;;;;;;;29.77;32.64;93964.41;5025066;28;7028;-56
2023/06/12 09:00:30;;;;;;;;;;;;;;;29.76;32.45;93960.88;5021175;28;7248;-56
2023/06/12 09:03:06;;;;;;;;;;;;;;;29.76;32.33;93966.44;5025086;28;7054;-56
2023/06/12 09:05:37;;;;;;;;;;;;;;;29.78;31.64;93968.66;5007063;28;7532;-56
2023/06/12 09:08:04;;;;;;;;;;;;;;;29.75;31.83;93953.84;5028288;28;8688;-56
2023/06/12 09:10:34;;;;;;;;;;;;;;;29.80;31.70;93961.28;5011416;28;7029;-56
2023/06/12 09:13:10;;;;;;;;;;;;;;;29.81;32.08;93956.47;5007525;28;7257;-56
2023/06/12 09:15:50;;;;;;;;;;;;;;;29.80;31.99;93958.50;5012244;28;7257;-56
2023/06/12 09:18:24;;;;;;;;;;;;;;;29.82;32.17;93954.44;5020514;28;7566;-56
2023/06/12 09:21:05;;;;;;;;;;;;;;;29.84;31.25;93954.63;5009011;28;7331;-56
2023/06/12 09:23:55;;;;;;;;;;;;;;;29.85;32.14;93961.66;5012182;28;7177;-56
2023/06/12 09:26:47;;;;;;;;;;;;;;;29.84;31.66;93965.72;5019741;28;7032;-56
2023/06/12 09:29:13;;;;;;;;;;;;;;;29.84;31.24;93966.44;5021858;28;9114;-56
2023/06/12 09:31:51;;;;;;;;;;;;;;;29.82;32.57;93957.94;5010590;28;9323;-56
2023/06/12 09:34:19;;;;;;;;;;;;;;;29.83;31.96;93962.22;5004443;28;7245;-56
2023/06/12 09:36:49;;;;;;;;;;;;;;;29.82;31.59;93946.84;5009124;28;9010;-56
2023/06/12 09:39:24;;;;;;;;;;;;;;;29.84;32.68;93960.91;5025560;28;9148;-56
2023/06/12 09:41:51;;;;;;;;;;;;;;;29.87;31.71;93953.53;5008213;28;9081;-56
2023/06/12 09:44:38;;;;;;;;;;;;;;;29.89;32.22;93939.84;5010680;28;8974;-56
2023/06/12 09:47:06;;;;;;;;;;;;;;;29.89;32.08;93953.72;5009215;28;9354;-56
2023/06/12 09:49:35;;;;;;;;;;;;;;;29.92;32.08;93945.06;5006852;28;9423;-56
2023/06/12 09:52:06;;;;;;;;;;;;;;;29.93;32.35;93945.81;5003634;28;6986;-56
2023/06/12 09:54:33;;;;;;;;;;;;;;;29.94;31.73;93942.47;5019849;28;8989;-56
2023/06/12 09:57:02;;;;;;;;;;;;;;;29.95;31.33;93948.75;5012195;28;7286;-56
2023/06/12 09:59:43;;;;;;;;;;;;;;;29.97;32.73;93944.13;5022762;28;7225;-56
2023/06/12 10:02:17;;;;;;;;;;;;;;;29.98;31.89;93942.84;5022812;28;7173;-56
2023/06/12 10:05:01;;;;;;;;;;;;;;;30.00;31.73;93945.81;5008787;28;7409;-56
2023/06/12 10:07:53;;;;;;;;;;;;;;;29.99;31.55;93944.34;5009249;28;7396;-56
2023/06/12 10:10:53;;;;;;;;;;;;;;;30.00;31.51;93945.81;5012285;28;7022;-56
2023/06/12 10:13:34;;;;;;;;;;;;;;;30.03;32.34;93935.66;4985240;28;7461;-56
2023/06/12 10:16:34;;;;;;;;;;;;;;;30.00;32.33;93934.72;5019867;28;7152;-56
2023/06/12 10:19:16;;;;;;;;;;;;;;;30.02;32.29;93937.66;4957793;28;7120;-56
2023/06/12 10:21:44;;;;;;;;;;;;;;;30.02;32.14;93943.22;4946883;28;9491;-56
2023/06/12 10:24:37;;;;;;;;;;;;;;;30.03;31.58;93941.94;4943559;28;9669;-56
2023/06/12 10:27:18;;;;;;;;;;;;;;;30.00;31.31;93940.25;4959121;28;8898;-56
2023/06/12 10:30:10;;;;;;;;;;;;;;;30.01;32.38;93930.66;4963637;28;7309;-56
2023/06/12 10:32:46;;;;;;;;;;;;;;;30.05;32.57;93933.81;4943266;28;7041;-56
2023/06/12 10:35:30;;;;;;;;;;;;;;;30.07;32.30;93942.31;4945729;28;7724;-56
2023/06/12 10:38:11;;;;;;;;;;;;;;;30.06;32.70;93940.09;4948757;28;7078;-56
2023/06/12 10:40:43;;;;;;;;;;;;;;;30.09;32.06;93941.75;4947012;28;7279;-56
2023/06/12 10:43:23;;;;;;;;;;;;;;;30.09;32.61;93936.22;4959253;28;7016;-56
2023/06/12 10:46:21;;;;;;;;;;;;;;;30.10;32.79;93924.56;4945869;28;9026;-56
2023/06/12 10:49:17;;;;;;;;;;;;;;;30.10;31.91;93929.38;4959953;28;7070;-56
2023/06/12 10:51:50;;;;;;;;;;;;;;;30.08;32.90;93924.38;4961633;28;7020;-55
2023/06/12 10:54:27;;;;;;;;;;;;;;;30.05;32.10;93922.72;4961511;28;7318;-56
2023/06/12 10:57:13;;;;;;;;;;;;;;;30.05;32.30;93914.41;5007128;28;7127;-56
2023/06/12 10:59:44;;;;;;;;;;;;;;;30.08;33.14;93920.88;5028093;28;8610;-56
2023/06/12 11:02:39;;;;;;;;;;;;;;;30.07;32.32;93917.34;5015893;28;7258;-56
2023/06/12 11:05:06;;;;;;;;;;;;;;;30.11;32.60;93914.22;5010462;28;9397;-56
2023/06/12 11:08:08;;;;;;;;;;;;;;;30.10;32.24;93910.69;5007560;28;7202;-56
2023/06/12 11:10:50;;;;;;;;;;;;;;;30.09;31.85;93909.22;5009113;28;7222;-56
2023/06/12 11:13:22;;;;;;;;;;;;;;;30.12;32.60;93897.03;4976419;28;9133;-56
2023/06/12 11:16:00;;;;;;;;;;;;;;;30.14;31.98;93905.53;5009004;28;7630;-56
2023/06/12 11:18:41;;;;;;;;;;;;;;;30.14;31.99;93904.78;5008939;28;7133;-56
2023/06/12 11:21:20;;;;;;;;;;;;;;;30.17;32.56;93896.09;5010345;28;7078;-56
2023/06/12 11:24:05;;;;;;;;;;;;;;;30.24;32.14;93905.72;5010504;28;7299;-56
2023/06/12 11:26:49;;;;;;;;;;;;;;;30.26;32.58;93908.69;5012930;28;7323;-56
2023/06/12 11:29:17;;;;;;;;;;;;;;;30.30;32.63;93911.81;4989082;28;7528;-56
2023/06/12 11:31:52;;;;;;;;;;;;;;;30.32;32.86;93903.75;5009100;28;7296;-56
2023/06/12 11:34:22;;;;;;;;;;;;;;;30.34;32.70;93904.63;5002814;28;7299;-56
2023/06/12 11:36:51;;;;;;;;;;;;;;;30.36;32.08;93904.81;5008294;28;8794;-56
2023/06/12 11:39:28;;;;;;;;;;;;;;;30.37;32.56;93903.53;5008585;28;7166;-56
2023/06/12 11:41:58;;;;;;;;;;;;;;;30.37;32.55;93900.03;5015886;28;7462;-56
2023/06/12 11:44:30;;;;;;;;;;;;;;;30.38;31.78;93899.47;5015498;28;8957;-56
2023/06/12 11:47:13;;;;;;;;;;;;;;;30.45;32.37;93893.19;5013639;28;9055;-56
2023/06/12 11:49:43;;;;;;;;;;;;;;;30.47;32.44;93889.88;5029200;28;7243;-56
2023/06/12 11:52:10;;;;;;;;;;;;;;;30.47;31.30;93887.09;5028450;28;7515;-56
2023/06/12 11:55:02;;;;;;;;;;;;;;;30.47;31.34;93887.09;5004289;28;7198;-56
2023/06/12 11:57:29;;;;;;;;;;;;;;;30.47;30.74;93876.72;5008639;28;7105;-56
2023/06/12 11:59:57;;;;;;;;;;;;;;;30.46;30.63;93866.91;5007881;28;7266;-56
2023/06/12 12:02:29;;;;;;;;;;;;;;;30.47;31.01;93871.16;5015223;28;7266;-56
2023/06/12 12:04:58;;;;;;;;;;;;;;;30.49;31.02;93873.41;5009173;28;9127;-56
2023/06/12 12:07:27;;;;;;;;;;;;;;;30.44;31.39;93880.59;5010697;28;8719;-56
2023/06/12 12:10:07;;;;;;;;;;;;;;;30.47;30.88;93870.44;5008616;28;7444;-56
2023/06/12 12:12:50;;;;;;;;;;;;;;;30.49;30.65;93870.63;5006068;28;8770;-56
2023/06/12 12:15:18;;;;;;;;;;;;;;;30.50;30.59;93866.53;5007171;28;7252;-56
2023/06/12 12:18:01;;;;;;;;;;;;;;;30.51;30.72;93854.88;5014329;28;9028;-56
2023/06/12 12:21:14;;;;;;;;;;;;;;;30.53;30.01;93860.63;5013006;28;7285;-56
2023/06/12 12:23:42;;;;;;;;;;;;;;;30.51;30.34;93854.16;5001367;28;7328;-56
2023/06/12 12:26:18;;;;;;;;;;;;;;;30.47;31.12;93854.50;4999391;28;7103;-56
2023/06/12 12:28:54;;;;;;;;;;;;;;;30.50;30.86;93858.22;5003205;28;7295;-56
2023/06/12 12:31:28;;;;;;;;;;;;;;;30.50;30.71;93852.66;4998828;28;8959;-56
2023/06/12 12:34:07;;;;;;;;;;;;;;;30.49;31.62;93846.34;4992173;28;9944;-56
2023/06/12 12:36:52;;;;;;;;;;;;;;;30.52;30.42;93850.81;4972290;28;7370;-56
2023/06/12 12:39:33;;;;;;;;;;;;;;;30.54;30.00;93848.22;4971263;28;7064;-56
2023/06/12 12:42:15;;;;;;;;;;;;;;;30.53;30.55;93843.97;5001694;28;9156;-56
2023/06/12 12:44:40;;;;;;;;;;;;;;;30.51;30.17;93843.75;4997290;28;7414;-56
2023/06/12 12:47:35;;;;;;;;;;;;;;;30.51;30.64;93835.44;4998149;28;7238;-56
2023/06/12 12:50:21;;;;;;;;;;;;;;;30.53;30.23;93846.75;4921851;29;7230;-56
2023/06/12 12:53:18;;;;;;;;;;;;;;;30.51;29.41;93838.22;4922704;29;9432;-56
2023/06/12 12:56:04;;;;;;;;;;;;;;;30.52;29.41;93834.16;4888940;29;7042;-56
2023/06/12 12:58:42;;;;;;;;;;;;;;;30.51;30.16;93827.13;4891330;29;7547;-56
2023/06/12 13:01:29;;;;;;;;;;;;;;;30.54;29.59;93826.00;4915880;29;9332;-56
2023/06/12 13:04:13;;;;;;;;;;;;;;;30.55;29.62;93826.75;4909395;29;7403;-56
2023/06/12 13:06:55;;;;;;;;;;;;;;;30.56;29.16;93828.22;4914206;29;9393;-57
2023/06/12 13:09:33;;;;;;;;;;;;;;;30.60;29.60;93836.19;4915644;29;7488;-56
2023/06/12 13:12:09;;;;;;;;;;;;;;;30.63;29.92;93835.81;4915072;29;9060;-56
2023/06/12 13:14:46;;;;;;;;;;;;;;;30.63;29.53;93830.25;4915517;29;9013;-56
2023/06/12 13:17:22;;;;;;;;;;;;;;;30.65;29.63;93815.81;4911295;29;7048;-56
2023/06/12 13:20:26;;;;;;;;;;;;;;;30.65;29.74;93813.03;4915707;29;9346;-56
2023/06/12 13:23:27;;;;;;;;;;;;;;;30.70;28.85;93815.63;4896530;29;9063;-56
2023/06/12 13:26:04;;;;;;;;;;;;;;;30.72;29.42;93806.72;4855451;29;9122;-56
2023/06/12 13:28:33;;;;;;;;;;;;;;;30.74;30.35;93806.91;4886100;29;7219;-56
2023/06/12 13:31:12;;;;;;;;;;;;;;;30.75;30.17;93809.16;4883349;29;7200;-56
2023/06/12 13:33:57;;;;;;;;;;;;;;;30.77;30.55;93801.00;4872111;29;7138;-56
2023/06/12 13:36:48;;;;;;;;;;;;;;;30.80;30.26;93796.34;4886910;29;9380;-56
2023/06/12 13:39:13;;;;;;;;;;;;;;;30.79;29.55;93800.41;4905536;29;9274;-56
2023/06/12 13:41:52;;;;;;;;;;;;;;;30.78;29.60;93801.72;4893944;29;8735;-56
2023/06/12 13:44:19;;;;;;;;;;;;;;;30.78;30.02;93790.59;4904447;29;7059;-56
2023/06/12 13:46:50;;;;;;;;;;;;;;;30.80;31.21;93797.06;4881530;29;7242;-56